Time;durP1;ratioP1;P1;durP2;ratioP2;P2;SDS_P1;SDS_P2;PMS_P1;PMS_P2;Temp;Humidity;BMP_temperature;BMP_pressure;BME280_temperature;BME280_humidity;BME280_pressure;Samples;Min_cycle;Max_cycle;Signal;HPM_P1;HPM_P2
2021/12/14 00:01:53;;;;;;;29.30;17.70;;;0.20;99.90;;;;;;5020276;28;20123;-70
2021/12/14 00:04:29;;;;;;;41.45;20.30;;;0.20;99.90;;;;;;5020841;28;20107;-70
2021/12/14 00:06:59;;;;;;;36.05;19.00;;;0.30;99.90;;;;;;5020399;28;20394;-70
2021/12/14 00:09:33;;;;;;;32.85;17.83;;;0.30;99.90;;;;;;5019553;28;20475;-69
2021/12/14 00:15:04;;;;;;;32.42;18.50;;;0.40;99.90;;;;;;5000464;28;20159;-69
2021/12/14 00:17:35;;;;;;;25.13;15.57;;;0.40;99.90;;;;;;5019674;28;20547;-69
2021/12/14 00:20:10;;;;;;;28.52;15.55;;;0.40;99.90;;;;;;5018588;28;20400;-69
2021/12/14 00:24:06;;;;;;;22.80;13.50;;;0.40;99.90;;;;;;5019444;28;20049;-70
2021/12/14 00:25:43;;;;;;;23.77;14.43;;;0.40;99.90;;;;;;5019147;28;20057;-70
2021/12/14 00:28:27;;;;;;;23.67;12.68;;;0.40;99.90;;;;;;5019355;28;20119;-69
2021/12/14 00:30:57;;;;;;;19.20;11.95;;;0.40;99.90;;;;;;5017506;28;20394;-70
2021/12/14 00:33:26;;;;;;;17.80;11.32;;;0.40;99.90;;;;;;5018283;28;20053;-69
2021/12/14 00:35:53;;;;;;;19.92;12.02;;;0.40;99.90;;;;;;5019152;28;20475;-70
2021/12/14 00:38:21;;;;;;;;;;;0.40;99.90;;;;;;5019397;28;20085;-69
2021/12/14 00:40:53;;;;;;;17.10;10.75;;;0.40;99.90;;;;;;5017506;28;19925;-70
2021/12/14 00:43:20;;;;;;;18.05;10.98;;;0.30;99.90;;;;;;5019693;28;20493;-69
2021/12/14 00:45:47;;;;;;;18.63;11.43;;;0.30;99.90;;;;;;5019468;28;20045;-70
2021/12/14 00:48:15;;;;;;;16.23;10.38;;;0.20;99.90;;;;;;5019221;28;20041;-69
2021/12/14 00:50:46;;;;;;;18.25;10.93;;;0.20;99.90;;;;;;5017200;28;20049;-71
2021/12/14 00:53:14;;;;;;;13.90;10.00;;;0.20;99.90;;;;;;5019409;28;20056;-69
2021/12/14 00:55:45;;;;;;;15.48;9.57;;;0.20;99.90;;;;;;5019013;28;20045;-69
2021/12/14 00:58:13;;;;;;;17.13;10.45;;;0.20;99.90;;;;;;5018767;28;20045;-69
2021/12/14 01:00:48;;;;;;;17.73;10.50;;;0.10;99.90;;;;;;5016762;28;20413;-70
2021/12/14 01:03:15;;;;;;;18.45;10.90;;;0.20;99.90;;;;;;5017251;28;20394;-69
2021/12/14 01:05:46;;;;;;;20.23;11.85;;;0.10;99.90;;;;;;5016775;28;20042;-70
2021/12/14 01:08:26;;;;;;;19.98;12.20;;;0.10;99.90;;;;;;5016310;28;20057;-69
2021/12/14 01:11:04;;;;;;;19.05;12.02;;;0.00;99.90;;;;;;5016871;28;20081;-70
2021/12/14 01:13:36;;;;;;;16.75;10.32;;;0.10;99.90;;;;;;5018683;28;20045;-71
2021/12/14 01:16:30;;;;;;;16.42;10.23;;;0.00;99.90;;;;;;5018271;28;20603;-69
2021/12/14 01:19:15;;;;;;;16.33;9.68;;;0.00;99.90;;;;;;5016492;28;20044;-69
2021/12/14 01:25:02;;;;;;;26.58;13.32;;;0.00;99.90;;;;;;5017169;28;20087;-69
2021/12/14 01:27:12;;;;;;;27.00;14.10;;;-0.10;99.90;;;;;;5008828;28;20134;-70
2021/12/14 01:29:42;;;;;;;24.52;13.20;;;-0.10;99.90;;;;;;5016416;28;20056;-70
2021/12/14 01:32:10;;;;;;;23.25;12.82;;;-0.20;99.90;;;;;;5000849;28;20065;-69
2021/12/14 01:34:38;;;;;;;21.52;13.27;;;-0.20;99.90;;;;;;5015804;28;20041;-71
2021/12/14 01:37:13;;;;;;;25.48;14.15;;;-0.20;99.90;;;;;;5019740;28;20554;-69
2021/12/14 01:42:23;;;;;;;23.77;13.05;;;-0.30;99.90;;;;;;5036821;28;20643;-69
2021/12/14 01:44:59;;;;;;;78.53;12.52;;;-0.30;99.90;;;;;;5037400;28;20115;-70
2021/12/14 01:47:39;;;;;;;159.05;17.48;;;-0.40;99.90;;;;;;5036793;28;20052;-70
2021/12/14 01:50:38;;;;;;;28.45;13.30;;;-0.50;99.90;;;;;;5028638;28;20111;-70
2021/12/14 01:53:14;;;;;;;16.17;10.80;;;-0.50;99.90;;;;;;5036494;28;20057;-69
2021/12/14 01:55:50;;;;;;;38.80;13.55;;;-0.60;99.90;;;;;;5035882;28;20049;-70
2021/12/14 01:58:20;;;;;;;20.40;12.98;;;-0.50;99.90;;;;;;5038027;28;20064;-71
2021/12/14 02:00:57;;;;;;;17.65;11.85;;;-0.60;99.90;;;;;;5019037;28;20045;-69
2021/12/14 02:03:45;;;;;;;20.63;13.10;;;-0.60;99.90;;;;;;5016063;28;20047;-69
2021/12/14 02:06:14;;;;;;;;;;;-0.60;99.90;;;;;;5016983;28;20049;-69
2021/12/14 02:08:42;;;;;;;28.50;15.05;;;-0.50;99.90;;;;;;5016416;28;20019;-69
2021/12/14 02:11:11;;;;;;;24.92;15.02;;;-0.50;99.90;;;;;;5014853;28;20049;-69
2021/12/14 02:13:45;;;;;;;26.42;14.73;;;-0.50;99.90;;;;;;5016120;28;20072;-69
2021/12/14 02:16:19;;;;;;;23.58;14.60;;;-0.40;99.90;;;;;;5015816;28;20492;-69
2021/12/14 02:19:00;;;;;;;26.45;15.75;;;-0.40;99.90;;;;;;5004524;28;20129;-69
2021/12/14 02:21:27;;;;;;;22.90;14.90;;;-0.30;99.90;;;;;;5015705;28;20049;-69
2021/12/14 02:23:56;;;;;;;24.35;15.32;;;-0.30;99.90;;;;;;5017762;28;20048;-69
2021/12/14 02:26:27;;;;;;;21.20;13.82;;;-0.30;99.90;;;;;;5015814;28;20050;-69
2021/12/14 02:28:56;;;;;;;25.52;16.33;;;-0.40;99.90;;;;;;5015516;28;20584;-70
2021/12/14 02:31:26;;;;;;;25.65;15.32;;;-0.30;99.90;;;;;;5015848;28;20045;-69
2021/12/14 02:33:56;;;;;;;21.55;13.82;;;-0.30;99.90;;;;;;5015901;28;20076;-69
2021/12/14 02:36:30;;;;;;;27.27;14.13;;;-0.30;99.90;;;;;;5015903;28;20101;-69
2021/12/14 02:39:11;;;;;;;26.45;15.25;;;-0.30;99.90;;;;;;5015822;28;20129;-69
2021/12/14 02:41:49;;;;;;;30.52;16.75;;;-0.30;99.90;;;;;;5015021;28;20290;-69
2021/12/14 02:44:20;;;;;;;24.45;15.77;;;-0.30;99.90;;;;;;4999794;28;20051;-69
2021/12/14 02:46:54;;;;;;;27.98;17.08;;;-0.30;99.90;;;;;;5015128;28;20047;-69
2021/12/14 02:49:25;;;;;;;38.30;17.23;;;-0.30;99.90;;;;;;5016922;28;20067;-69
2021/12/14 02:51:56;;;;;;;23.23;15.18;;;-0.30;99.90;;;;;;5015681;28;20370;-69
2021/12/14 02:54:31;;;;;;;20.67;12.60;;;-0.20;99.90;;;;;;5015752;28;20087;-69
2021/12/14 02:57:12;;;;;;;20.75;12.75;;;-0.20;99.90;;;;;;5016047;28;20049;-70
2021/12/14 02:59:41;;;;;;;21.08;12.95;;;-0.20;99.90;;;;;;5014500;28;20042;-69
2021/12/14 03:02:13;;;;;;;17.40;10.60;;;-0.20;99.90;;;;;;5015636;28;20584;-69
2021/12/14 03:04:46;;;;;;;15.43;9.35;;;-0.20;99.90;;;;;;5014349;28;20057;-69
2021/12/14 03:07:15;;;;;;;12.52;8.73;;;-0.20;99.90;;;;;;5015792;28;20072;-69
2021/12/14 03:09:57;;;;;;;13.85;8.80;;;-0.10;99.90;;;;;;5014251;28;20057;-69
2021/12/14 03:12:36;;;;;;;12.05;8.13;;;-0.20;99.90;;;;;;5017549;28;20125;-70
2021/12/14 03:15:05;;;;;;;12.35;6.80;;;-0.10;99.90;;;;;;5016591;28;20046;-69
2021/12/14 03:17:33;;;;;;;11.68;7.93;;;-0.10;99.90;;;;;;5014325;28;20513;-69
2021/12/14 03:20:20;;;;;;;29.90;13.75;;;-0.10;99.90;;;;;;5015888;28;20052;-68
2021/12/14 03:23:09;;;;;;;23.70;13.15;;;-0.20;99.90;;;;;;5016599;28;20146;-68
2021/12/14 03:25:41;;;;;;;22.20;13.63;;;-0.20;99.90;;;;;;5014884;28;20049;-69
2021/12/14 03:28:10;;;;;;;70.20;15.07;;;-0.20;99.90;;;;;;5016816;28;20033;-70
2021/12/14 03:31:03;;;;;;;112.88;16.33;;;-0.20;99.90;;;;;;5015245;28;20559;-69
2021/12/14 03:33:49;;;;;;;28.42;13.93;;;-0.30;99.90;;;;;;5013966;28;20096;-70
2021/12/14 03:36:23;;;;;;;22.77;12.68;;;-0.30;99.90;;;;;;5015258;28;20053;-68
2021/12/14 03:39:09;;;;;;;29.75;16.42;;;-0.40;99.90;;;;;;5015823;28;20053;-68
2021/12/14 03:41:50;;;;;;;25.10;14.13;;;-0.40;99.90;;;;;;5016354;28;20068;-69
2021/12/14 03:44:22;;;;;;;22.38;13.35;;;-0.40;99.90;;;;;;5014432;28;20045;-68
2021/12/14 03:46:51;;;;;;;24.23;14.77;;;-0.50;99.90;;;;;;5017027;28;20308;-69
2021/12/14 03:49:21;;;;;;;25.80;15.05;;;-0.50;99.90;;;;;;5014104;28;20092;-68
2021/12/14 03:51:49;;;;;;;25.90;15.23;;;-0.50;99.90;;;;;;5014873;28;20532;-69
2021/12/14 03:54:17;;;;;;;50.00;18.77;;;-0.50;99.90;;;;;;5014383;28;20136;-69
2021/12/14 03:56:48;;;;;;;26.88;15.07;;;-0.50;99.90;;;;;;5014669;28;20479;-68
2021/12/14 03:59:18;;;;;;;44.97;20.30;;;-0.50;99.90;;;;;;5013706;28;20480;-68
2021/12/14 04:01:48;;;;;;;28.05;15.70;;;-0.50;99.90;;;;;;5009816;28;20046;-68
2021/12/14 04:04:31;;;;;;;35.97;17.15;;;-0.50;99.90;;;;;;5011226;28;20465;-69
2021/12/14 04:07:01;;;;;;;25.48;14.75;;;-0.50;99.90;;;;;;4995527;28;20046;-69
2021/12/14 04:09:32;;;;;;;25.48;14.55;;;-0.50;99.90;;;;;;4994288;28;20250;-69
2021/12/14 04:12:00;;;;;;;22.50;14.10;;;-0.50;99.90;;;;;;4994539;28;20054;-69
2021/12/14 04:14:30;;;;;;;38.03;15.32;;;-0.50;99.90;;;;;;5011337;28;20042;-69
2021/12/14 04:16:59;;;;;;;46.30;18.42;;;-0.50;99.90;;;;;;5002845;28;20041;-70
2021/12/14 04:19:29;;;;;;;27.30;14.57;;;-0.50;99.90;;;;;;5013348;28;20046;-69
2021/12/14 04:22:01;;;;;;;18.98;12.45;;;-0.50;99.90;;;;;;5014279;28;20034;-68
2021/12/14 04:24:34;;;;;;;19.25;12.43;;;-0.50;99.90;;;;;;5013572;28;20045;-69
2021/12/14 04:27:05;;;;;;;18.48;11.52;;;-0.40;99.90;;;;;;5015412;28;20045;-69
2021/12/14 04:29:32;;;;;;;18.27;11.75;;;-0.40;99.90;;;;;;5013537;28;20565;-69
2021/12/14 04:32:05;;;;;;;45.28;16.80;;;-0.40;99.90;;;;;;5014847;28;20107;-69
2021/12/14 04:34:33;;;;;;;26.20;14.43;;;-0.40;99.90;;;;;;5013881;28;20081;-68
2021/12/14 04:37:02;;;;;;;27.88;15.27;;;-0.40;99.90;;;;;;5014713;28;20056;-68
2021/12/14 04:39:40;;;;;;;44.60;19.63;;;-0.40;99.90;;;;;;5013991;28;20045;-68
2021/12/14 04:53:24;;;;;;;12.27;6.70;;;-0.50;99.90;;;;;;5019449;28;20046;-68
2021/12/14 04:55:53;;;;;;;;;;;-0.50;99.90;;;;;;5018332;28;20139;-69
2021/12/14 04:58:32;;;;;;;10.32;5.47;;;-0.40;99.90;;;;;;5017579;28;19929;-69
2021/12/14 05:01:01;;;;;;;10.68;5.90;;;-0.40;99.90;;;;;;5016838;28;20348;-68
2021/12/14 05:03:53;;;;;;;10.82;5.68;;;-0.30;99.90;;;;;;5017232;28;20144;-68
2021/12/14 05:06:24;;;;;;;12.20;5.07;;;-0.30;99.90;;;;;;5004218;28;20769;-68
2021/12/14 05:11:24;;;;;;;9.95;5.05;;;-0.10;99.90;;;;;;5017889;28;20084;-69
2021/12/14 05:13:59;;;;;;;6.57;4.60;;;-0.10;99.90;;;;;;5018194;28;20049;-69
2021/12/14 05:16:32;;;;;;;8.90;5.32;;;-0.10;99.90;;;;;;5017516;28;20152;-69
2021/12/14 05:19:24;;;;;;;10.00;5.88;;;-0.10;99.90;;;;;;5016714;28;20073;-70
2021/12/14 05:21:58;;;;;;;9.25;4.53;;;-0.20;99.90;;;;;;5017312;28;20405;-69
2021/12/14 05:24:27;;;;;;;10.07;5.32;;;-0.20;99.90;;;;;;5018513;28;20052;-68
2021/12/14 05:27:04;;;;;;;9.02;4.95;;;-0.20;99.90;;;;;;5017049;28;20397;-69
2021/12/14 05:29:41;;;;;;;8.50;4.63;;;-0.20;99.90;;;;;;5016727;28;20045;-69
2021/12/14 05:32:10;;;;;;;9.55;5.25;;;-0.30;99.90;;;;;;5016457;28;20067;-69
2021/12/14 05:34:40;;;;;;;9.13;4.00;;;-0.30;99.90;;;;;;5017292;28;20045;-69
2021/12/14 05:37:08;;;;;;;8.88;4.57;;;-0.30;99.90;;;;;;5018570;28;20041;-69
2021/12/14 05:39:51;;;;;;;5.90;3.53;;;-0.30;99.90;;;;;;5015589;28;20053;-69
2021/12/14 05:45:40;;;;;;;7.28;4.90;;;-0.30;99.90;;;;;;5015759;28;20168;-69
2021/12/14 05:48:09;;;;;;;6.72;4.13;;;-0.30;99.90;;;;;;5017421;28;20060;-68
2021/12/14 05:50:45;;;;;;;7.38;4.57;;;-0.30;99.90;;;;;;5016219;28;20045;-69
2021/12/14 05:53:22;;;;;;;9.18;4.28;;;-0.30;99.90;;;;;;5017582;28;20041;-69
2021/12/14 05:55:50;;;;;;;9.90;5.25;;;-0.30;99.90;;;;;;5016222;28;20495;-69
2021/12/14 05:58:21;;;;;;;10.35;5.80;;;-0.30;99.90;;;;;;5015867;28;20712;-69
2021/12/14 06:00:59;;;;;;;13.38;7.50;;;-0.40;99.90;;;;;;5015281;28;20521;-69
2021/12/14 06:03:34;;;;;;;13.05;7.30;;;-0.40;99.90;;;;;;5017113;28;20037;-69
2021/12/14 06:06:02;;;;;;;15.50;8.43;;;-0.50;99.90;;;;;;5016599;28;20052;-68
2021/12/14 06:08:33;;;;;;;15.98;9.30;;;-0.60;99.90;;;;;;5016187;28;20539;-69
2021/12/14 06:11:23;;;;;;;19.58;9.55;;;-0.70;99.90;;;;;;5017631;28;20133;-69
2021/12/14 06:13:52;;;;;;;18.60;7.68;;;-0.70;99.90;;;;;;5016465;28;20103;-69
2021/12/14 06:16:30;;;;;;;16.52;9.45;;;-0.70;99.90;;;;;;5013218;28;20374;-68
2021/12/14 06:19:15;;;;;;;16.23;9.48;;;-0.70;99.90;;;;;;5021488;28;20349;-68
2021/12/14 06:21:46;;;;;;;18.42;10.30;;;-0.70;99.90;;;;;;5015500;28;20041;-68
2021/12/14 06:24:13;;;;;;;22.45;11.60;;;-0.70;99.90;;;;;;5015333;28;20045;-68
2021/12/14 06:26:53;;;;;;;25.13;12.70;;;-0.60;99.90;;;;;;5016431;28;20465;-69
2021/12/14 06:29:24;;;;;;;21.10;12.57;;;-0.60;99.90;;;;;;5014852;28;20046;-70
2021/12/14 06:31:53;;;;;;;20.83;11.35;;;-0.60;99.90;;;;;;5015489;28;20127;-60
2021/12/14 06:34:26;;;;;;;21.98;11.93;;;-0.60;99.90;;;;;;4999230;28;20141;-60
2021/12/14 06:40:27;;;;;;;23.75;13.18;;;-0.60;99.90;;;;;;4984031;28;20054;-60
2021/12/14 06:43:05;;;;;;;23.15;12.10;;;-0.50;99.90;;;;;;5015631;28;20624;-60
2021/12/14 06:45:39;;;;;;;23.42;12.48;;;-0.50;99.90;;;;;;5014847;28;20556;-60
2021/12/14 06:48:10;;;;;;;28.20;13.93;;;-0.50;99.90;;;;;;5014928;28;20140;-60
2021/12/14 06:50:52;;;;;;;21.58;13.18;;;-0.50;99.90;;;;;;5014180;28;20037;-59
2021/12/14 06:53:35;;;;;;;22.27;12.25;;;-0.50;99.90;;;;;;5014338;28;20401;-60
2021/12/14 06:56:31;;;;;;;23.23;13.57;;;-0.40;99.90;;;;;;5015278;28;20180;-59
2021/12/14 06:59:22;;;;;;;26.27;13.98;;;-0.50;99.90;;;;;;5008887;28;20215;-59
2021/12/14 07:02:07;;;;;;;27.98;13.60;;;-0.40;99.90;;;;;;5012635;28;20104;-59
2021/12/14 07:04:48;;;;;;;27.73;14.07;;;-0.40;99.90;;;;;;4993643;28;20255;-60
2021/12/14 07:07:20;;;;;;;43.30;16.15;;;-0.40;99.90;;;;;;5002778;28;20045;-61
2021/12/14 07:09:53;;;;;;;46.38;14.85;;;-0.40;99.90;;;;;;5014073;28;20434;-60
2021/12/14 07:12:24;;;;;;;61.90;17.10;;;-0.40;99.90;;;;;;5016809;28;20362;-58
2021/12/14 07:15:04;;;;;;;25.70;14.43;;;-0.30;99.90;;;;;;5015399;28;20704;-60
2021/12/14 07:17:41;;;;;;;37.55;15.05;;;-0.20;99.90;;;;;;5015257;28;20041;-60
2021/12/14 07:20:13;;;;;;;25.35;12.25;;;-0.20;99.90;;;;;;5022247;28;20091;-59
2021/12/14 07:22:45;;;;;;;23.13;11.95;;;-0.10;99.90;;;;;;5035266;28;20098;-60
2021/12/14 07:25:27;;;;;;;23.30;11.85;;;-0.10;99.90;;;;;;5035323;28;20041;-60
2021/12/14 07:28:08;;;;;;;24.08;13.13;;;0.00;99.90;;;;;;5035931;28;20315;-61
2021/12/14 07:30:37;;;;;;;25.55;13.27;;;0.00;99.90;;;;;;5034775;28;20512;-60
2021/12/14 07:33:26;;;;;;;30.10;14.75;;;0.10;99.90;;;;;;5033650;28;20084;-60
2021/12/14 07:35:59;;;;;;;25.27;13.05;;;0.10;99.90;;;;;;5035657;28;20053;-60
2021/12/14 07:38:31;;;;;;;25.15;13.15;;;0.10;99.90;;;;;;5033625;28;20121;-61
2021/12/14 07:41:04;;;;;;;28.35;14.73;;;0.10;99.90;;;;;;5035215;28;20041;-60
2021/12/14 07:43:43;;;;;;;24.05;12.85;;;0.10;99.90;;;;;;5033733;28;20145;-60
2021/12/14 07:46:23;;;;;;;34.25;15.73;;;0.10;99.90;;;;;;5035276;28;20064;-60
2021/12/14 07:48:59;;;;;;;33.15;15.90;;;0.10;99.90;;;;;;5034826;28;20063;-59
2021/12/14 07:51:31;;;;;;;30.58;14.05;;;0.10;99.90;;;;;;5035045;28;21159;-59
2021/12/14 07:54:07;;;;;;;29.08;14.85;;;0.10;99.90;;;;;;5033764;28;20048;-60
2021/12/14 07:56:37;;;;;;;26.83;13.70;;;0.10;99.90;;;;;;5035206;28;20045;-59
2021/12/14 07:59:17;;;;;;;33.90;16.42;;;0.10;99.90;;;;;;5031442;28;20060;-59
2021/12/14 08:01:46;;;;;;;26.95;14.57;;;0.10;99.90;;;;;;5015537;28;20053;-58
2021/12/14 08:04:13;;;;;;;27.80;14.57;;;0.10;99.90;;;;;;5015382;28;20098;-62
2021/12/14 08:06:46;;;;;;;39.65;16.40;;;0.10;99.90;;;;;;5013833;28;20038;-59
2021/12/14 08:09:18;;;;;;;26.75;14.70;;;0.10;99.90;;;;;;4995236;28;20050;-59
2021/12/14 08:11:47;;;;;;;29.13;14.75;;;0.20;99.90;;;;;;4995888;28;20042;-61
2021/12/14 08:14:19;;;;;;;31.45;15.43;;;0.20;99.90;;;;;;4995396;28;20057;-61
2021/12/14 08:17:09;;;;;;;29.88;14.57;;;0.20;99.90;;;;;;5003755;28;20654;-59
2021/12/14 08:19:40;;;;;;;28.73;14.70;;;0.20;99.90;;;;;;5017392;28;20463;-59
2021/12/14 08:22:27;;;;;;;30.63;15.13;;;0.30;99.90;;;;;;5018570;28;20041;-58
2021/12/14 08:24:55;;;;;;;26.90;14.40;;;0.30;99.90;;;;;;5016842;28;20111;-59
2021/12/14 08:27:25;;;;;;;24.73;13.95;;;0.40;99.90;;;;;;5019382;28;20107;-58
2021/12/14 08:29:55;;;;;;;26.98;14.10;;;0.50;99.90;;;;;;5018159;28;20446;-63
2021/12/14 08:32:28;;;;;;;27.08;14.15;;;0.60;99.90;;;;;;5020175;28;20107;-58
2021/12/14 08:34:58;;;;;;;37.38;17.17;;;0.60;99.90;;;;;;5016491;28;20049;-59
2021/12/14 08:37:36;;;;;;;31.08;15.85;;;0.70;99.90;;;;;;5017790;28;20132;-58
2021/12/14 08:40:22;;;;;;;29.95;17.20;;;0.70;99.90;;;;;;5017807;28;20555;-62
2021/12/14 08:43:07;;;;;;;26.33;14.18;;;0.70;99.90;;;;;;5019211;28;20048;-58
2021/12/14 08:45:40;;;;;;;24.65;13.90;;;0.80;99.90;;;;;;5018015;28;20095;-57
2021/12/14 08:48:17;;;;;;;19.60;11.13;;;0.80;99.90;;;;;;5019162;28;20566;-57
2021/12/14 08:50:46;;;;;;;;;;;0.80;99.90;;;;;;5017867;28;20049;-58
2021/12/14 08:53:14;;;;;;;19.80;9.10;;;0.80;99.90;;;;;;5019077;28;20331;-59
2021/12/14 08:55:45;;;;;;;11.65;7.03;;;0.90;99.90;;;;;;5014943;28;20053;-58
2021/12/14 08:58:13;;;;;;;11.02;6.72;;;0.90;99.90;;;;;;5015001;28;20100;-58
2021/12/14 09:00:47;;;;;;;10.10;6.80;;;1.00;99.90;;;;;;5017090;28;20060;-58
2021/12/14 09:03:32;;;;;;;12.68;7.20;;;1.10;99.90;;;;;;5017498;28;20038;-58
2021/12/14 09:06:10;;;;;;;12.68;9.00;;;1.20;99.90;;;;;;5017764;28;20049;-58
2021/12/14 09:08:39;;;;;;;13.38;7.78;;;1.30;99.90;;;;;;5017954;28;20045;-58
2021/12/14 09:11:07;;;;;;;14.55;9.52;;;1.50;99.90;;;;;;5017960;28;20419;-57
2021/12/14 09:13:34;;;;;;;18.33;9.63;;;1.70;99.90;;;;;;5016063;28;20126;-59
2021/12/14 09:16:15;;;;;;;18.52;9.77;;;1.90;99.90;;;;;;5018499;28;20049;-59
2021/12/14 09:18:48;;;;;;;19.60;11.70;;;2.10;99.90;;;;;;5016725;28;20128;-59
2021/12/14 09:21:23;;;;;;;15.25;10.50;;;2.40;99.90;;;;;;5015497;28;20717;-59
2021/12/14 09:23:57;;;;;;;18.42;9.80;;;2.50;99.90;;;;;;5015674;28;20405;-59
2021/12/14 09:26:28;;;;;;;16.90;10.82;;;2.70;99.90;;;;;;5018123;28;20052;-59
2021/12/14 09:28:55;;;;;;;15.93;8.93;;;2.80;99.90;;;;;;5016175;28;20045;-59
2021/12/14 09:31:26;;;;;;;16.50;8.93;;;3.00;99.90;;;;;;5016748;28;20053;-59
2021/12/14 09:33:58;;;;;;;16.00;9.48;;;3.10;99.90;;;;;;5018038;28;20276;-59
2021/12/14 09:36:28;;;;;;;16.65;9.63;;;3.10;99.90;;;;;;5014924;28;20049;-59
2021/12/14 09:39:09;;;;;;;14.18;8.55;;;3.10;99.90;;;;;;5016180;28;20475;-59
2021/12/14 09:41:39;;;;;;;15.70;9.32;;;3.10;99.90;;;;;;5017252;28;20076;-59
2021/12/14 09:44:10;;;;;;;15.60;9.90;;;3.10;99.90;;;;;;5016700;28;20048;-59
2021/12/14 09:46:37;;;;;;;15.77;9.43;;;3.20;99.90;;;;;;5016432;28;20057;-60
2021/12/14 09:49:07;;;;;;;16.67;9.45;;;3.40;99.90;;;;;;5017295;28;20045;-61
2021/12/14 09:51:45;;;;;;;15.52;8.63;;;3.50;99.90;;;;;;5017001;28;20111;-63
2021/12/14 09:54:15;;;;;;;15.18;8.88;;;3.50;99.90;;;;;;5016903;28;20045;-58
2021/12/14 09:56:53;;;;;;;18.90;9.15;;;3.50;99.90;;;;;;5017016;28;20471;-59
2021/12/14 09:59:23;;;;;;;15.98;8.20;;;3.50;99.90;;;;;;5015998;28;20298;-59
2021/12/14 10:02:01;;;;;;;18.92;11.02;;;3.50;99.90;;;;;;5017206;28;20135;-59
2021/12/14 10:04:34;;;;;;;12.50;7.82;;;3.50;99.90;;;;;;5016480;28;20464;-58
2021/12/14 10:07:03;;;;;;;15.68;8.65;;;3.40;99.90;;;;;;5017524;28;20100;-59
2021/12/14 10:09:39;;;;;;;13.90;9.27;;;3.50;99.90;;;;;;5016366;28;20048;-59
2021/12/14 10:15:07;;;;;;;;;;;3.90;99.90;;;;;;5012785;28;20053;-60
2021/12/14 10:17:35;;;;;;;9.63;6.72;;;4.10;99.90;;;;;;5016020;28;19947;-59
2021/12/14 10:20:04;;;;;;;12.43;6.85;;;4.20;99.90;;;;;;4996670;28;20038;-61
2021/12/14 10:22:31;;;;;;;15.45;8.40;;;4.30;99.90;;;;;;5009645;28;20992;-61
2021/12/14 10:25:05;;;;;;;11.68;7.28;;;4.40;99.90;;;;;;5017307;28;20052;-62
2021/12/14 10:27:34;;;;;;;11.88;7.63;;;4.40;99.90;;;;;;5016128;28;20199;-61
2021/12/14 10:30:10;;;;;;;13.27;7.95;;;4.40;99.90;;;;;;5016305;28;20447;-62
2021/12/14 10:32:38;;;;;;;11.30;7.82;;;4.40;99.90;;;;;;5016688;28;20053;-61
2021/12/14 10:35:11;;;;;;;13.38;8.48;;;4.40;99.90;;;;;;5015965;28;20049;-61
2021/12/14 10:38:10;;;;;;;13.85;7.80;;;4.40;99.90;;;;;;5016603;28;20092;-61
2021/12/14 10:43:47;;;;;;;13.38;8.00;;;4.40;99.90;;;;;;4973466;28;20614;-59
2021/12/14 10:46:20;;;;;;;16.27;7.90;;;4.40;99.90;;;;;;5008238;28;20318;-62
2021/12/14 10:48:49;;;;;;;14.10;8.75;;;4.30;99.90;;;;;;5015933;28;20465;-60
2021/12/14 10:51:20;;;;;;;15.50;9.18;;;4.30;99.90;;;;;;5016460;28;20049;-61
2021/12/14 10:53:52;;;;;;;14.40;7.70;;;4.20;99.90;;;;;;4996675;28;20054;-61
2021/12/14 10:56:55;;;;;;;13.55;8.32;;;4.10;99.90;;;;;;4996205;28;20133;-61
2021/12/14 10:59:26;;;;;;;14.75;9.23;;;4.10;99.90;;;;;;5000463;28;20099;-61
2021/12/14 11:01:53;;;;;;;17.77;8.82;;;4.00;99.90;;;;;;5015943;28;20491;-60
2021/12/14 11:04:27;;;;;;;15.15;8.63;;;4.00;99.90;;;;;;5015696;28;20057;-61
2021/12/14 11:06:55;;;;;;;12.63;8.25;;;4.00;99.90;;;;;;5014472;28;20122;-61
2021/12/14 11:12:20;;;;;;;15.25;8.73;;;4.10;99.90;;;;;;5015563;28;20053;-62
2021/12/14 11:14:51;;;;;;;18.85;9.30;;;4.20;99.90;;;;;;5016249;28;20559;-61
2021/12/14 11:20:27;;;;;;;15.07;8.52;;;4.50;99.90;;;;;;4995746;28;20050;-60
2021/12/14 11:23:08;;;;;;;14.63;9.48;;;4.60;99.90;;;;;;5012740;28;20127;-60
2021/12/14 11:25:45;;;;;;;17.00;10.90;;;4.70;99.90;;;;;;5015897;28;20108;-59
2021/12/14 11:28:31;;;;;;;17.33;11.82;;;4.90;99.90;;;;;;5015625;28;20477;-59
2021/12/14 11:31:22;;;;;;;22.75;12.40;;;5.00;99.90;;;;;;5014362;28;20064;-58
2021/12/14 11:34:09;;;;;;;25.73;13.20;;;5.30;99.90;;;;;;5015468;28;20127;-58
2021/12/14 11:36:43;;;;;;;23.00;14.20;;;5.60;99.90;;;;;;5015568;28;20041;-59
2021/12/14 11:39:25;;;;;;;31.83;16.13;;;5.70;99.90;;;;;;5014784;28;20045;-58
2021/12/14 11:42:03;;;;;;;24.73;15.32;;;5.90;99.90;;;;;;5014835;28;20055;-58
2021/12/14 11:44:32;;;;;;;30.23;16.42;;;6.00;99.90;;;;;;5015429;28;20888;-58
2021/12/14 11:47:04;;;;;;;27.52;14.85;;;6.00;99.90;;;;;;5014954;28;20080;-57
2021/12/14 11:49:47;;;;;;;24.73;15.45;;;6.10;99.90;;;;;;5014832;28;20045;-58
2021/12/14 11:52:52;;;;;;;27.75;16.33;;;6.10;99.90;;;;;;5017431;28;20559;-58
2021/12/14 11:55:19;;;;;;;26.90;14.80;;;6.20;99.90;;;;;;5018974;28;20797;-58
2021/12/14 11:57:46;;;;;;;;;;;6.30;99.90;;;;;;5017681;28;20099;-60
2021/12/14 12:00:20;;;;;;;24.30;13.77;;;6.30;99.90;;;;;;5018434;28;19956;-60
2021/12/14 12:02:47;;;;;;;21.88;14.00;;;6.40;99.90;;;;;;5018403;28;20053;-61
2021/12/14 12:05:22;;;;;;;21.85;13.77;;;6.50;99.90;;;;;;5019041;28;20041;-61
2021/12/14 12:10:43;;;;;;;15.63;10.70;;;6.80;99.90;;;;;;5017504;28;20273;-61
2021/12/14 12:13:10;;;;;;;14.15;10.07;;;7.10;99.90;;;;;;5019312;28;20560;-61
2021/12/14 12:15:39;;;;;;;;;;;7.40;99.90;;;;;;5019381;28;20383;-61
2021/12/14 12:18:06;;;;;;;13.18;8.48;;;7.60;99.90;;;;;;5015784;28;20161;-62
2021/12/14 12:20:41;;;;;;;9.00;6.85;;;7.60;99.90;;;;;;4997508;28;20143;-62
2021/12/14 12:23:18;;;;;;;9.55;6.90;;;7.60;99.90;;;;;;5017394;28;20045;-61
2021/12/14 12:25:59;;;;;;;14.38;7.72;;;7.50;99.90;;;;;;5018391;28;20045;-61
2021/12/14 12:28:34;;;;;;;9.25;6.05;;;7.50;99.90;;;;;;5019526;28;20053;-61
2021/12/14 12:31:06;;;;;;;16.60;9.65;;;7.50;99.90;;;;;;5018648;28;20103;-61
2021/12/14 12:33:40;;;;;;;18.23;9.10;;;7.40;99.90;;;;;;5017857;28;20448;-61
2021/12/14 12:36:22;;;;;;;17.85;10.98;;;7.30;99.90;;;;;;5018823;28;20041;-61
2021/12/14 12:39:00;;;;;;;21.73;13.50;;;7.10;99.90;;;;;;5018183;28;20045;-61
2021/12/14 12:41:29;;;;;;;;;;;6.90;99.90;;;;;;5019062;28;20049;-60
2021/12/14 12:44:05;;;;;;;22.83;15.02;;;6.80;99.90;;;;;;5018715;28;19925;-61
2021/12/14 12:46:40;;;;;;;23.15;14.35;;;6.60;99.90;;;;;;5018772;28;20065;-61
2021/12/14 12:49:14;;;;;;;22.23;13.95;;;6.40;99.90;;;;;;5017459;28;20069;-62
2021/12/14 12:51:53;;;;;;;25.05;14.65;;;6.20;99.90;;;;;;5018422;28;20049;-61
2021/12/14 12:54:28;;;;;;;23.95;16.65;;;5.90;99.90;;;;;;5018409;28;20046;-61
2021/12/14 12:57:13;;;;;;;31.70;17.60;;;5.70;99.90;;;;;;5019348;28;20095;-61
2021/12/14 12:59:54;;;;;;;30.38;18.42;;;5.40;99.90;;;;;;5018728;28;20037;-61
2021/12/14 13:02:31;;;;;;;37.50;22.20;;;5.10;99.90;;;;;;5018884;28;20254;-62
2021/12/14 13:05:04;;;;;;;;;;;4.80;99.90;;;;;;5018792;28;20455;-61
2021/12/14 13:07:46;;;;;;;44.22;22.85;;;4.60;99.90;;;;;;5018264;28;20196;-61
2021/12/14 13:10:35;;;;;;;35.40;20.92;;;4.40;99.90;;;;;;5016972;28;20049;-61
2021/12/14 13:13:12;;;;;;;37.17;22.17;;;4.20;99.90;;;;;;5018226;28;20084;-61
2021/12/14 13:15:49;;;;;;;34.92;20.48;;;4.10;99.90;;;;;;5017976;28;20102;-61
2021/12/14 13:18:36;;;;;;;39.33;21.73;;;4.00;99.90;;;;;;5012752;28;20564;-60
2021/12/14 13:21:24;;;;;;;37.00;19.83;;;3.90;99.90;;;;;;4994737;28;20050;-61
2021/12/14 13:23:58;;;;;;;;;;;3.90;99.90;;;;;;5018401;28;20164;-61
2021/12/14 13:26:47;;;;;;;35.80;21.30;;;3.80;99.90;;;;;;5018022;28;20006;-59
2021/12/14 13:29:16;;;;;;;41.17;21.60;;;3.80;99.90;;;;;;5016982;28;20621;-58
2021/12/14 13:31:51;;;;;;;40.40;22.90;;;3.80;99.90;;;;;;5018286;28;20071;-58
2021/12/14 13:34:48;;;;;;;41.72;22.83;;;3.90;99.90;;;;;;5017469;28;20461;-58
2021/12/14 13:37:23;;;;;;;39.55;22.88;;;3.80;99.90;;;;;;5018022;28;20598;-58
2021/12/14 13:39:52;;;;;;;42.22;24.45;;;3.80;99.90;;;;;;5015927;28;20442;-58
2021/12/14 13:42:27;;;;;;;38.08;22.40;;;3.80;99.90;;;;;;5017288;28;20511;-58
2021/12/14 13:44:55;;;;;;;32.17;20.17;;;3.80;99.90;;;;;;5018080;28;20034;-58
2021/12/14 13:47:26;;;;;;;28.98;17.98;;;3.80;99.90;;;;;;5016667;28;20073;-58
2021/12/14 13:49:55;;;;;;;27.15;16.48;;;3.90;99.90;;;;;;5017169;28;20051;-58
2021/12/14 13:52:22;;;;;;;30.52;17.17;;;3.90;99.90;;;;;;5016913;28;20080;-58
2021/12/14 13:55:22;;;;;;;33.20;17.40;;;4.00;99.90;;;;;;5017593;28;20049;-58
2021/12/14 13:57:59;;;;;;;30.48;18.13;;;4.00;99.90;;;;;;5018250;28;20473;-58
2021/12/14 14:00:47;;;;;;;27.10;16.13;;;4.10;99.90;;;;;;5014366;28;20056;-58
2021/12/14 14:03:15;;;;;;;28.17;16.38;;;4.10;99.90;;;;;;5016548;28;20251;-59